Dexter, Kansas
Current Conditions -  °F | °C
As of 12:54 AM on Wednesday 26 Nov 2014 (Local Time) from KWLD Reporting Station
Clear Clear  
Wind Chill: 34°   Ceiling: Unl
Heat Index: 40°   Visibility: 10mi
Dew Point: 27°   Wind: 9mph
Humidity: 60%   Direction: 160°SSE
Pressure: 29.95"   Gusts: NA
Location:  37.18°N, 96.71°W
Report Text: KWLD 260654Z AUTO 16008KT 10SM CLR 04/M03 A2995 RMK AO2 SLP145 T00441028
Loading
Personal Weather Stations






























Interactive Weather Map New forecast layout! Learn more

10-Day Weather Forecast

Advertisements
Track Severe Weather on mobile